sensor_id;sensor_type;location;lat;lon;timestamp;temperature;humidity
45012;DHT22;63444;48.148;11.542;2023-07-31T00:01:44;19.70;99.00
45012;DHT22;63444;48.148;11.542;2023-07-31T00:04:10;19.60;98.90
45012;DHT22;63444;48.148;11.542;2023-07-31T00:06:35;19.60;99.00
45012;DHT22;63444;48.148;11.542;2023-07-31T00:09:01;19.60;98.90
45012;DHT22;63444;48.148;11.542;2023-07-31T00:11:27;19.60;99.10
45012;DHT22;63444;48.148;11.542;2023-07-31T00:13:53;19.50;99.10
45012;DHT22;63444;48.148;11.542;2023-07-31T00:16:19;19.50;99.10
45012;DHT22;63444;48.148;11.542;2023-07-31T00:18:45;19.50;99.10
45012;DHT22;63444;48.148;11.542;2023-07-31T00:21:10;19.40;99.20
45012;DHT22;63444;48.148;11.542;2023-07-31T00:23:36;19.40;99.40
45012;DHT22;63444;48.148;11.542;2023-07-31T00:26:01;19.40;99.50
45012;DHT22;63444;48.148;11.542;2023-07-31T00:28:27;19.30;99.60
45012;DHT22;63444;48.148;11.542;2023-07-31T00:30:54;19.30;99.90
45012;DHT22;63444;48.148;11.542;2023-07-31T00:33:19;19.30;99.60
45012;DHT22;63444;48.148;11.542;2023-07-31T00:35:45;19.30;99.70
45012;DHT22;63444;48.148;11.542;2023-07-31T00:38:10;19.30;99.80
45012;DHT22;63444;48.148;11.542;2023-07-31T00:40:37;19.30;99.90
45012;DHT22;63444;48.148;11.542;2023-07-31T00:43:03;19.20;99.70
45012;DHT22;63444;48.148;11.542;2023-07-31T00:45:29;19.20;99.70
45012;DHT22;63444;48.148;11.542;2023-07-31T00:47:55;19.20;99.70
45012;DHT22;63444;48.148;11.542;2023-07-31T00:50:24;19.20;99.70
45012;DHT22;63444;48.148;11.542;2023-07-31T00:52:49;19.20;99.70
45012;DHT22;63444;48.148;11.542;2023-07-31T00:55:15;19.10;99.80
45012;DHT22;63444;48.148;11.542;2023-07-31T00:57:41;19.10;99.70
45012;DHT22;63444;48.148;11.542;2023-07-31T01:00:08;19.10;99.80
45012;DHT22;63444;48.148;11.542;2023-07-31T01:02:34;19.10;99.90
45012;DHT22;63444;48.148;11.542;2023-07-31T01:05:01;19.00;99.90
45012;DHT22;63444;48.148;11.542;2023-07-31T01:07:40;19.00;99.90
45012;DHT22;63444;48.148;11.542;2023-07-31T01:10:14;19.00;99.90
45012;DHT22;63444;48.148;11.542;2023-07-31T01:12:42;19.00;99.90
45012;DHT22;63444;48.148;11.542;2023-07-31T01:15:09;19.00;99.90
45012;DHT22;63444;48.148;11.542;2023-07-31T01:17:39;19.00;99.90
45012;DHT22;63444;48.148;11.542;2023-07-31T01:20:18;19.00;99.90
45012;DHT22;63444;48.148;11.542;2023-07-31T01:28:15;19.00;99.90
45012;DHT22;63444;48.148;11.542;2023-07-31T01:30:46;19.00;99.90
45012;DHT22;63444;48.148;11.542;2023-07-31T01:33:17;19.00;99.90
45012;DHT22;63444;48.148;11.542;2023-07-31T01:35:44;19.00;99.70
45012;DHT22;63444;48.148;11.542;2023-07-31T01:38:11;19.00;99.50
45012;DHT22;63444;48.148;11.542;2023-07-31T01:40:37;19.00;99.20
45012;DHT22;63444;48.148;11.542;2023-07-31T01:43:02;19.00;99.40
45012;DHT22;63444;48.148;11.542;2023-07-31T01:45:28;18.90;99.50
45012;DHT22;63444;48.148;11.542;2023-07-31T01:47:54;18.90;99.70
45012;DHT22;63444;48.148;11.542;2023-07-31T01:50:19;18.90;99.80
45012;DHT22;63444;48.148;11.542;2023-07-31T01:52:45;18.90;99.90
45012;DHT22;63444;48.148;11.542;2023-07-31T01:55:10;18.90;99.90
45012;DHT22;63444;48.148;11.542;2023-07-31T01:57:37;18.90;99.90
45012;DHT22;63444;48.148;11.542;2023-07-31T02:00:03;18.90;99.90
45012;DHT22;63444;48.148;11.542;2023-07-31T02:02:29;19.00;99.90
45012;DHT22;63444;48.148;11.542;2023-07-31T02:04:54;19.00;99.90
45012;DHT22;63444;48.148;11.542;2023-07-31T02:07:20;19.00;99.90
45012;DHT22;63444;48.148;11.542;2023-07-31T02:09:45;19.00;99.90
45012;DHT22;63444;48.148;11.542;2023-07-31T02:12:13;19.00;99.90
45012;DHT22;63444;48.148;11.542;2023-07-31T02:14:40;18.90;99.90
45012;DHT22;63444;48.148;11.542;2023-07-31T02:17:05;18.90;99.90
45012;DHT22;63444;48.148;11.542;2023-07-31T02:19:31;18.90;99.90
45012;DHT22;63444;48.148;11.542;2023-07-31T02:21:57;18.90;99.90
45012;DHT22;63444;48.148;11.542;2023-07-31T02:24:23;18.90;99.90
45012;DHT22;63444;48.148;11.542;2023-07-31T02:26:49;18.90;99.90
45012;DHT22;63444;48.148;11.542;2023-07-31T02:29:14;18.90;99.90
45012;DHT22;63444;48.148;11.542;2023-07-31T02:31:40;18.90;99.90
45012;DHT22;63444;48.148;11.542;2023-07-31T02:34:05;18.90;99.90
45012;DHT22;63444;48.148;11.542;2023-07-31T02:36:31;18.90;99.90
45012;DHT22;63444;48.148;11.542;2023-07-31T02:38:57;19.00;99.90
45012;DHT22;63444;48.148;11.542;2023-07-31T02:41:22;19.00;99.90
45012;DHT22;63444;48.148;11.542;2023-07-31T02:43:48;19.00;99.90
45012;DHT22;63444;48.148;11.542;2023-07-31T02:46:13;19.00;99.90
45012;DHT22;63444;48.148;11.542;2023-07-31T02:48:39;19.00;99.90
45012;DHT22;63444;48.148;11.542;2023-07-31T02:51:05;19.00;99.90
45012;DHT22;63444;48.148;11.542;2023-07-31T02:53:30;19.00;99.90
45012;DHT22;63444;48.148;11.542;2023-07-31T02:55:56;18.90;99.90
45012;DHT22;63444;48.148;11.542;2023-07-31T02:58:21;18.90;99.90
45012;DHT22;63444;48.148;11.542;2023-07-31T03:00:47;18.90;99.90
45012;DHT22;63444;48.148;11.542;2023-07-31T03:03:12;18.90;99.90
45012;DHT22;63444;48.148;11.542;2023-07-31T03:05:38;18.90;99.90
45012;DHT22;63444;48.148;11.542;2023-07-31T03:08:04;18.90;99.90
45012;DHT22;63444;48.148;11.542;2023-07-31T03:10:29;18.90;99.90
45012;DHT22;63444;48.148;11.542;2023-07-31T03:12:55;18.80;99.90
45012;DHT22;63444;48.148;11.542;2023-07-31T03:15:21;18.80;99.90
45012;DHT22;63444;48.148;11.542;2023-07-31T03:17:46;18.80;99.90
45012;DHT22;63444;48.148;11.542;2023-07-31T03:20:12;18.70;99.90
45012;DHT22;63444;48.148;11.542;2023-07-31T03:22:37;18.70;99.90
45012;DHT22;63444;48.148;11.542;2023-07-31T03:25:03;18.70;99.90
45012;DHT22;63444;48.148;11.542;2023-07-31T03:27:29;18.70;99.90
45012;DHT22;63444;48.148;11.542;2023-07-31T03:29:55;18.60;99.90
45012;DHT22;63444;48.148;11.542;2023-07-31T03:32:20;18.60;99.90
45012;DHT22;63444;48.148;11.542;2023-07-31T03:34:46;18.60;99.90
45012;DHT22;63444;48.148;11.542;2023-07-31T03:37:11;18.60;99.90
45012;DHT22;63444;48.148;11.542;2023-07-31T03:39:37;18.60;99.90
45012;DHT22;63444;48.148;11.542;2023-07-31T03:42:03;18.60;99.90
45012;DHT22;63444;48.148;11.542;2023-07-31T03:44:29;18.60;99.90
45012;DHT22;63444;48.148;11.542;2023-07-31T03:46:54;18.50;99.90
45012;DHT22;63444;48.148;11.542;2023-07-31T03:49:20;18.50;99.90
45012;DHT22;63444;48.148;11.542;2023-07-31T03:51:46;18.50;99.90
45012;DHT22;63444;48.148;11.542;2023-07-31T03:54:11;18.50;99.90
45012;DHT22;63444;48.148;11.542;2023-07-31T03:56:38;18.50;99.90
45012;DHT22;63444;48.148;11.542;2023-07-31T03:59:04;18.50;99.90
45012;DHT22;63444;48.148;11.542;2023-07-31T04:01:29;18.50;99.90
45012;DHT22;63444;48.148;11.542;2023-07-31T04:03:55;18.50;99.90
45012;DHT22;63444;48.148;11.542;2023-07-31T04:06:21;18.40;99.90
45012;DHT22;63444;48.148;11.542;2023-07-31T04:08:46;18.40;99.90
45012;DHT22;63444;48.148;11.542;2023-07-31T04:11:12;18.40;99.90
45012;DHT22;63444;48.148;11.542;2023-07-31T04:13:38;18.40;99.90
45012;DHT22;63444;48.148;11.542;2023-07-31T04:16:04;18.40;99.90
45012;DHT22;63444;48.148;11.542;2023-07-31T04:18:30;18.40;99.90
45012;DHT22;63444;48.148;11.542;2023-07-31T04:20:57;18.40;99.90
45012;DHT22;63444;48.148;11.542;2023-07-31T04:23:29;18.30;99.90
45012;DHT22;63444;48.148;11.542;2023-07-31T04:25:55;18.30;99.90
45012;DHT22;63444;48.148;11.542;2023-07-31T04:28:20;18.30;99.90
45012;DHT22;63444;48.148;11.542;2023-07-31T04:30:46;18.30;99.90
45012;DHT22;63444;48.148;11.542;2023-07-31T04:33:12;18.30;99.90
45012;DHT22;63444;48.148;11.542;2023-07-31T04:35:38;18.30;99.90
45012;DHT22;63444;48.148;11.542;2023-07-31T04:38:03;18.30;99.90
45012;DHT22;63444;48.148;11.542;2023-07-31T04:40:29;18.30;99.90
45012;DHT22;63444;48.148;11.542;2023-07-31T04:42:54;18.30;99.90
45012;DHT22;63444;48.148;11.542;2023-07-31T04:45:20;18.30;99.90
45012;DHT22;63444;48.148;11.542;2023-07-31T04:47:46;18.30;99.90
45012;DHT22;63444;48.148;11.542;2023-07-31T04:50:11;18.30;99.90
45012;DHT22;63444;48.148;11.542;2023-07-31T04:52:37;18.30;99.90
45012;DHT22;63444;48.148;11.542;2023-07-31T04:55:03;18.30;99.90
45012;DHT22;63444;48.148;11.542;2023-07-31T04:57:28;18.30;99.90
45012;DHT22;63444;48.148;11.542;2023-07-31T04:59:54;18.30;99.90
45012;DHT22;63444;48.148;11.542;2023-07-31T05:02:19;18.30;99.90
45012;DHT22;63444;48.148;11.542;2023-07-31T05:04:45;18.30;99.90
45012;DHT22;63444;48.148;11.542;2023-07-31T05:07:10;18.30;99.90
45012;DHT22;63444;48.148;11.542;2023-07-31T05:09:36;18.40;99.90
45012;DHT22;63444;48.148;11.542;2023-07-31T05:12:03;18.40;99.90
45012;DHT22;63444;48.148;11.542;2023-07-31T05:14:29;18.40;99.90
45012;DHT22;63444;48.148;11.542;2023-07-31T05:16:55;18.40;99.90
45012;DHT22;63444;48.148;11.542;2023-07-31T05:19:20;18.50;99.90
45012;DHT22;63444;48.148;11.542;2023-07-31T05:21:46;18.60;99.90
45012;DHT22;63444;48.148;11.542;2023-07-31T05:24:11;18.60;99.90
45012;DHT22;63444;48.148;11.542;2023-07-31T05:26:37;18.60;99.90
45012;DHT22;63444;48.148;11.542;2023-07-31T05:29:03;18.70;99.90
45012;DHT22;63444;48.148;11.542;2023-07-31T05:31:29;18.70;99.90
45012;DHT22;63444;48.148;11.542;2023-07-31T05:33:54;18.80;99.90
45012;DHT22;63444;48.148;11.542;2023-07-31T05:36:20;18.90;99.90
45012;DHT22;63444;48.148;11.542;2023-07-31T05:38:45;19.00;99.90
45012;DHT22;63444;48.148;11.542;2023-07-31T05:41:12;19.20;99.90
45012;DHT22;63444;48.148;11.542;2023-07-31T05:43:37;19.20;99.90
45012;DHT22;63444;48.148;11.542;2023-07-31T05:46:03;19.30;99.90
45012;DHT22;63444;48.148;11.542;2023-07-31T05:48:29;19.50;99.90
45012;DHT22;63444;48.148;11.542;2023-07-31T05:50:54;19.60;99.90
45012;DHT22;63444;48.148;11.542;2023-07-31T05:53:20;19.80;99.90
45012;DHT22;63444;48.148;11.542;2023-07-31T05:55:45;19.90;99.90
45012;DHT22;63444;48.148;11.542;2023-07-31T05:58:11;20.00;99.90
45012;DHT22;63444;48.148;11.542;2023-07-31T06:00:36;20.00;99.90
45012;DHT22;63444;48.148;11.542;2023-07-31T06:03:02;20.10;99.90
45012;DHT22;63444;48.148;11.542;2023-07-31T06:05:28;20.20;99.90
45012;DHT22;63444;48.148;11.542;2023-07-31T06:07:55;20.40;99.90
45012;DHT22;63444;48.148;11.542;2023-07-31T06:10:21;20.60;99.90
45012;DHT22;63444;48.148;11.542;2023-07-31T06:12:46;20.80;99.90
45012;DHT22;63444;48.148;11.542;2023-07-31T06:15:12;21.10;99.90
45012;DHT22;63444;48.148;11.542;2023-07-31T06:17:37;21.50;99.90
45012;DHT22;63444;48.148;11.542;2023-07-31T06:20:03;21.80;99.90
45012;DHT22;63444;48.148;11.542;2023-07-31T06:22:32;22.00;99.40
45012;DHT22;63444;48.148;11.542;2023-07-31T06:24:58;22.20;99.60
45012;DHT22;63444;48.148;11.542;2023-07-31T06:27:24;22.30;98.80
45012;DHT22;63444;48.148;11.542;2023-07-31T06:29:49;22.40;98.50
45012;DHT22;63444;48.148;11.542;2023-07-31T06:32:15;22.50;98.70
45012;DHT22;63444;48.148;11.542;2023-07-31T06:34:41;22.50;97.90
45012;DHT22;63444;48.148;11.542;2023-07-31T06:37:06;22.40;97.90
45012;DHT22;63444;48.148;11.542;2023-07-31T06:39:32;22.40;97.80
45012;DHT22;63444;48.148;11.542;2023-07-31T06:41:57;22.20;98.40
45012;DHT22;63444;48.148;11.542;2023-07-31T06:44:23;22.10;98.40
45012;DHT22;63444;48.148;11.542;2023-07-31T06:46:48;22.00;98.10
45012;DHT22;63444;48.148;11.542;2023-07-31T06:49:14;22.00;98.00
45012;DHT22;63444;48.148;11.542;2023-07-31T06:51:43;21.90;98.10
45012;DHT22;63444;48.148;11.542;2023-07-31T06:54:09;22.00;98.10
45012;DHT22;63444;48.148;11.542;2023-07-31T06:56:35;22.00;98.20
45012;DHT22;63444;48.148;11.542;2023-07-31T06:59:00;22.10;98.00
45012;DHT22;63444;48.148;11.542;2023-07-31T07:01:26;22.20;97.80
45012;DHT22;63444;48.148;11.542;2023-07-31T07:03:53;22.30;97.70
45012;DHT22;63444;48.148;11.542;2023-07-31T07:06:18;22.30;97.20
45012;DHT22;63444;48.148;11.542;2023-07-31T07:08:44;22.20;97.30
45012;DHT22;63444;48.148;11.542;2023-07-31T07:11:10;22.10;97.20
45012;DHT22;63444;48.148;11.542;2023-07-31T07:13:36;22.10;97.40
45012;DHT22;63444;48.148;11.542;2023-07-31T07:16:01;22.10;97.40
45012;DHT22;63444;48.148;11.542;2023-07-31T07:18:27;22.10;97.50
45012;DHT22;63444;48.148;11.542;2023-07-31T07:20:54;22.10;97.50
45012;DHT22;63444;48.148;11.542;2023-07-31T07:23:20;22.20;97.50
45012;DHT22;63444;48.148;11.542;2023-07-31T07:25:46;22.30;97.50
45012;DHT22;63444;48.148;11.542;2023-07-31T07:28:13;22.50;97.40
45012;DHT22;63444;48.148;11.542;2023-07-31T07:30:38;22.70;96.90
45012;DHT22;63444;48.148;11.542;2023-07-31T07:33:04;22.80;96.50
45012;DHT22;63444;48.148;11.542;2023-07-31T07:35:32;22.80;96.60
45012;DHT22;63444;48.148;11.542;2023-07-31T07:37:58;22.80;96.80
45012;DHT22;63444;48.148;11.542;2023-07-31T07:40:23;22.90;96.60
45012;DHT22;63444;48.148;11.542;2023-07-31T07:42:50;23.00;96.70
45012;DHT22;63444;48.148;11.542;2023-07-31T07:45:15;23.20;96.10
45012;DHT22;63444;48.148;11.542;2023-07-31T07:47:41;23.40;95.80
45012;DHT22;63444;48.148;11.542;2023-07-31T07:50:08;23.50;95.40
45012;DHT22;63444;48.148;11.542;2023-07-31T07:52:33;23.60;95.50
45012;DHT22;63444;48.148;11.542;2023-07-31T07:54:59;23.70;95.20
45012;DHT22;63444;48.148;11.542;2023-07-31T07:57:25;23.70;94.90
45012;DHT22;63444;48.148;11.542;2023-07-31T07:59:51;23.80;94.50
45012;DHT22;63444;48.148;11.542;2023-07-31T08:02:16;23.80;94.70
45012;DHT22;63444;48.148;11.542;2023-07-31T08:04:42;23.80;94.20
45012;DHT22;63444;48.148;11.542;2023-07-31T08:07:08;23.80;94.00
45012;DHT22;63444;48.148;11.542;2023-07-31T08:09:35;23.90;94.20
45012;DHT22;63444;48.148;11.542;2023-07-31T08:12:01;24.00;94.00
45012;DHT22;63444;48.148;11.542;2023-07-31T08:14:28;24.00;93.90
45012;DHT22;63444;48.148;11.542;2023-07-31T08:16:54;24.10;93.50
45012;DHT22;63444;48.148;11.542;2023-07-31T08:19:19;24.20;93.90
45012;DHT22;63444;48.148;11.542;2023-07-31T08:21:45;24.40;93.50
45012;DHT22;63444;48.148;11.542;2023-07-31T08:24:11;24.50;92.70
45012;DHT22;63444;48.148;11.542;2023-07-31T08:26:36;24.50;92.50
45012;DHT22;63444;48.148;11.542;2023-07-31T08:29:02;24.60;92.20
45012;DHT22;63444;48.148;11.542;2023-07-31T08:31:27;24.60;92.00
45012;DHT22;63444;48.148;11.542;2023-07-31T08:33:55;24.60;92.20
45012;DHT22;63444;48.148;11.542;2023-07-31T08:36:20;24.60;91.70
45012;DHT22;63444;48.148;11.542;2023-07-31T08:38:46;24.60;91.80
45012;DHT22;63444;48.148;11.542;2023-07-31T08:41:12;24.40;92.20
45012;DHT22;63444;48.148;11.542;2023-07-31T08:43:39;24.30;91.80
45012;DHT22;63444;48.148;11.542;2023-07-31T08:46:05;24.20;91.50
45012;DHT22;63444;48.148;11.542;2023-07-31T08:48:32;24.00;91.60
45012;DHT22;63444;48.148;11.542;2023-07-31T08:50:58;23.80;91.80
45012;DHT22;63444;48.148;11.542;2023-07-31T08:53:24;23.80;92.20
45012;DHT22;63444;48.148;11.542;2023-07-31T08:55:52;23.60;92.30
45012;DHT22;63444;48.148;11.542;2023-07-31T08:58:19;23.40;92.40
45012;DHT22;63444;48.148;11.542;2023-07-31T09:00:46;23.30;92.40
45012;DHT22;63444;48.148;11.542;2023-07-31T09:03:17;23.20;92.60
45012;DHT22;63444;48.148;11.542;2023-07-31T09:05:46;23.00;92.80
45012;DHT22;63444;48.148;11.542;2023-07-31T09:08:18;23.00;93.10
45012;DHT22;63444;48.148;11.542;2023-07-31T09:10:45;23.00;92.90
45012;DHT22;63444;48.148;11.542;2023-07-31T09:13:17;23.00;93.10
45012;DHT22;63444;48.148;11.542;2023-07-31T09:15:44;23.10;92.90
45012;DHT22;63444;48.148;11.542;2023-07-31T09:18:10;23.30;93.10
45012;DHT22;63444;48.148;11.542;2023-07-31T09:20:36;23.40;93.20
45012;DHT22;63444;48.148;11.542;2023-07-31T09:23:11;23.60;92.80
45012;DHT22;63444;48.148;11.542;2023-07-31T09:25:38;23.70;92.40
45012;DHT22;63444;48.148;11.542;2023-07-31T09:28:06;23.80;92.10
45012;DHT22;63444;48.148;11.542;2023-07-31T09:30:45;23.80;92.40
45012;DHT22;63444;48.148;11.542;2023-07-31T09:33:11;23.80;91.90
45012;DHT22;63444;48.148;11.542;2023-07-31T09:35:36;23.90;91.80
45012;DHT22;63444;48.148;11.542;2023-07-31T09:38:10;23.90;91.70
45012;DHT22;63444;48.148;11.542;2023-07-31T09:40:42;24.00;91.70
45012;DHT22;63444;48.148;11.542;2023-07-31T09:43:09;24.10;91.60
45012;DHT22;63444;48.148;11.542;2023-07-31T09:45:38;24.20;91.50
45012;DHT22;63444;48.148;11.542;2023-07-31T09:48:17;24.40;91.30
45012;DHT22;63444;48.148;11.542;2023-07-31T09:50:45;24.40;91.10
45012;DHT22;63444;48.148;11.542;2023-07-31T09:53:11;24.30;91.40
45012;DHT22;63444;48.148;11.542;2023-07-31T09:55:38;24.40;91.90
45012;DHT22;63444;48.148;11.542;2023-07-31T09:58:05;24.60;90.70
45012;DHT22;63444;48.148;11.542;2023-07-31T10:00:31;24.60;90.60
45012;DHT22;63444;48.148;11.542;2023-07-31T10:03:04;24.70;90.90
45012;DHT22;63444;48.148;11.542;2023-07-31T10:05:50;24.80;90.10
45012;DHT22;63444;48.148;11.542;2023-07-31T10:08:18;24.70;90.70
45012;DHT22;63444;48.148;11.542;2023-07-31T10:10:46;24.70;90.50
45012;DHT22;63444;48.148;11.542;2023-07-31T10:13:12;24.80;90.40
45012;DHT22;63444;48.148;11.542;2023-07-31T10:15:38;24.80;90.80
45012;DHT22;63444;48.148;11.542;2023-07-31T10:18:06;24.90;90.50
45012;DHT22;63444;48.148;11.542;2023-07-31T10:20:32;25.00;90.40
45012;DHT22;63444;48.148;11.542;2023-07-31T10:22:58;25.10;89.70
45012;DHT22;63444;48.148;11.542;2023-07-31T10:25:26;25.20;89.50
45012;DHT22;63444;48.148;11.542;2023-07-31T10:27:53;25.20;88.80
45012;DHT22;63444;48.148;11.542;2023-07-31T10:30:21;25.20;89.10
45012;DHT22;63444;48.148;11.542;2023-07-31T10:32:48;25.20;87.80
45012;DHT22;63444;48.148;11.542;2023-07-31T10:35:16;25.20;87.90
45012;DHT22;63444;48.148;11.542;2023-07-31T10:37:43;25.10;87.90
45012;DHT22;63444;48.148;11.542;2023-07-31T10:40:17;25.10;87.30
45012;DHT22;63444;48.148;11.542;2023-07-31T10:42:49;25.20;85.80
45012;DHT22;63444;48.148;11.542;2023-07-31T10:48:01;25.30;87.30
45012;DHT22;63444;48.148;11.542;2023-07-31T10:50:27;25.30;87.60
45012;DHT22;63444;48.148;11.542;2023-07-31T10:52:55;25.30;86.80
45012;DHT22;63444;48.148;11.542;2023-07-31T10:57:50;25.20;86.50
45012;DHT22;63444;48.148;11.542;2023-07-31T11:03:05;25.00;86.60
45012;DHT22;63444;48.148;11.542;2023-07-31T11:08:19;24.80;87.40
45012;DHT22;63444;48.148;11.542;2023-07-31T11:10:47;24.80;87.40
45012;DHT22;63444;48.148;11.542;2023-07-31T11:13:13;24.80;86.90
45012;DHT22;63444;48.148;11.542;2023-07-31T11:15:40;24.80;87.20
45012;DHT22;63444;48.148;11.542;2023-07-31T11:18:06;24.70;88.30
45012;DHT22;63444;48.148;11.542;2023-07-31T11:20:34;24.70;88.70
45012;DHT22;63444;48.148;11.542;2023-07-31T11:23:05;24.70;88.70
45012;DHT22;63444;48.148;11.542;2023-07-31T11:25:31;24.70;89.00
45012;DHT22;63444;48.148;11.542;2023-07-31T11:28:11;24.80;88.80
45012;DHT22;63444;48.148;11.542;2023-07-31T11:30:37;24.80;86.60
45012;DHT22;63444;48.148;11.542;2023-07-31T11:33:04;24.80;87.00
45012;DHT22;63444;48.148;11.542;2023-07-31T11:35:31;24.80;86.70
45012;DHT22;63444;48.148;11.542;2023-07-31T11:37:57;24.90;86.50
45012;DHT22;63444;48.148;11.542;2023-07-31T11:40:22;24.90;85.80
45012;DHT22;63444;48.148;11.542;2023-07-31T11:42:54;25.00;85.90
45012;DHT22;63444;48.148;11.542;2023-07-31T11:45:20;25.00;86.50
45012;DHT22;63444;48.148;11.542;2023-07-31T11:47:45;25.10;85.20
45012;DHT22;63444;48.148;11.542;2023-07-31T11:50:11;25.00;84.90
45012;DHT22;63444;48.148;11.542;2023-07-31T11:52:40;25.10;86.20
45012;DHT22;63444;48.148;11.542;2023-07-31T11:55:08;25.20;86.20
45012;DHT22;63444;48.148;11.542;2023-07-31T11:57:39;25.20;86.10
45012;DHT22;63444;48.148;11.542;2023-07-31T12:00:07;25.30;84.90
45012;DHT22;63444;48.148;11.542;2023-07-31T12:02:34;25.30;85.00
45012;DHT22;63444;48.148;11.542;2023-07-31T12:04:59;25.30;85.10
45012;DHT22;63444;48.148;11.542;2023-07-31T12:07:25;25.30;85.40
45012;DHT22;63444;48.148;11.542;2023-07-31T12:09:55;25.30;84.80
45012;DHT22;63444;48.148;11.542;2023-07-31T12:12:21;25.40;83.20
45012;DHT22;63444;48.148;11.542;2023-07-31T12:14:47;25.40;84.10
45012;DHT22;63444;48.148;11.542;2023-07-31T12:17:14;25.40;82.00
45012;DHT22;63444;48.148;11.542;2023-07-31T12:19:40;25.40;83.00
45012;DHT22;63444;48.148;11.542;2023-07-31T12:22:16;25.40;83.70
45012;DHT22;63444;48.148;11.542;2023-07-31T12:24:44;25.40;83.30
45012;DHT22;63444;48.148;11.542;2023-07-31T12:27:11;25.40;83.00
45012;DHT22;63444;48.148;11.542;2023-07-31T12:29:39;25.40;83.80
45012;DHT22;63444;48.148;11.542;2023-07-31T12:32:18;25.40;84.20
45012;DHT22;63444;48.148;11.542;2023-07-31T12:34:43;25.40;83.80
45012;DHT22;63444;48.148;11.542;2023-07-31T12:37:09;25.50;82.30
45012;DHT22;63444;48.148;11.542;2023-07-31T12:39:34;25.50;81.80
45012;DHT22;63444;48.148;11.542;2023-07-31T12:42:00;25.40;82.40
45012;DHT22;63444;48.148;11.542;2023-07-31T12:44:26;25.40;82.40
45012;DHT22;63444;48.148;11.542;2023-07-31T12:46:51;25.30;82.10
45012;DHT22;63444;48.148;11.542;2023-07-31T12:49:17;25.30;81.80
45012;DHT22;63444;48.148;11.542;2023-07-31T12:51:42;25.40;82.90
45012;DHT22;63444;48.148;11.542;2023-07-31T12:54:08;25.40;83.40
45012;DHT22;63444;48.148;11.542;2023-07-31T12:56:33;25.50;82.70
45012;DHT22;63444;48.148;11.542;2023-07-31T12:58:59;25.50;83.40
45012;DHT22;63444;48.148;11.542;2023-07-31T13:01:25;25.50;83.90
45012;DHT22;63444;48.148;11.542;2023-07-31T13:03:50;25.50;84.20
45012;DHT22;63444;48.148;11.542;2023-07-31T13:06:16;25.50;84.00
45012;DHT22;63444;48.148;11.542;2023-07-31T13:08:41;25.50;84.10
45012;DHT22;63444;48.148;11.542;2023-07-31T13:11:07;25.40;83.80
45012;DHT22;63444;48.148;11.542;2023-07-31T13:13:32;25.50;83.50
45012;DHT22;63444;48.148;11.542;2023-07-31T13:15:58;25.50;83.70
45012;DHT22;63444;48.148;11.542;2023-07-31T13:18:23;25.60;84.00
45012;DHT22;63444;48.148;11.542;2023-07-31T13:20:49;25.60;83.80
45012;DHT22;63444;48.148;11.542;2023-07-31T13:23:15;25.60;83.70
45012;DHT22;63444;48.148;11.542;2023-07-31T13:25:40;25.70;84.30
45012;DHT22;63444;48.148;11.542;2023-07-31T13:28:06;25.70;84.00
45012;DHT22;63444;48.148;11.542;2023-07-31T13:30:31;25.70;81.60
45012;DHT22;63444;48.148;11.542;2023-07-31T13:32:57;25.80;81.10
45012;DHT22;63444;48.148;11.542;2023-07-31T13:35:22;25.80;80.40
45012;DHT22;63444;48.148;11.542;2023-07-31T13:37:48;25.80;80.30
45012;DHT22;63444;48.148;11.542;2023-07-31T13:40:14;25.80;80.10
45012;DHT22;63444;48.148;11.542;2023-07-31T13:42:39;25.80;80.60
45012;DHT22;63444;48.148;11.542;2023-07-31T13:45:05;25.70;81.10
45012;DHT22;63444;48.148;11.542;2023-07-31T13:47:31;25.70;80.70
45012;DHT22;63444;48.148;11.542;2023-07-31T13:49:57;25.80;80.50
45012;DHT22;63444;48.148;11.542;2023-07-31T13:52:23;25.80;80.80
45012;DHT22;63444;48.148;11.542;2023-07-31T13:54:48;25.80;81.10
45012;DHT22;63444;48.148;11.542;2023-07-31T13:57:14;25.80;81.70
45012;DHT22;63444;48.148;11.542;2023-07-31T13:59:39;25.70;82.40
45012;DHT22;63444;48.148;11.542;2023-07-31T14:02:05;25.70;82.80
45012;DHT22;63444;48.148;11.542;2023-07-31T14:04:31;25.70;82.10
45012;DHT22;63444;48.148;11.542;2023-07-31T14:06:56;25.70;82.50
45012;DHT22;63444;48.148;11.542;2023-07-31T14:09:22;25.70;82.20
45012;DHT22;63444;48.148;11.542;2023-07-31T14:11:48;25.70;81.40
45012;DHT22;63444;48.148;11.542;2023-07-31T14:14:13;25.70;80.50
45012;DHT22;63444;48.148;11.542;2023-07-31T14:16:39;25.60;78.70
45012;DHT22;63444;48.148;11.542;2023-07-31T14:19:05;25.60;79.30
45012;DHT22;63444;48.148;11.542;2023-07-31T14:21:30;25.50;80.20
45012;DHT22;63444;48.148;11.542;2023-07-31T14:23:56;25.50;81.50
45012;DHT22;63444;48.148;11.542;2023-07-31T14:26:22;25.50;82.10
45012;DHT22;63444;48.148;11.542;2023-07-31T14:28:47;25.50;81.40
45012;DHT22;63444;48.148;11.542;2023-07-31T14:31:13;25.50;81.40
45012;DHT22;63444;48.148;11.542;2023-07-31T14:33:38;25.50;82.80
45012;DHT22;63444;48.148;11.542;2023-07-31T14:36:04;25.60;81.90
45012;DHT22;63444;48.148;11.542;2023-07-31T14:38:30;25.60;82.30
45012;DHT22;63444;48.148;11.542;2023-07-31T14:40:56;25.60;81.50
45012;DHT22;63444;48.148;11.542;2023-07-31T14:43:21;25.60;80.90
45012;DHT22;63444;48.148;11.542;2023-07-31T14:45:47;25.70;80.90
45012;DHT22;63444;48.148;11.542;2023-07-31T14:48:13;25.70;80.60
45012;DHT22;63444;48.148;11.542;2023-07-31T14:50:38;25.70;80.90
45012;DHT22;63444;48.148;11.542;2023-07-31T14:53:04;25.60;80.70
45012;DHT22;63444;48.148;11.542;2023-07-31T14:55:29;25.50;81.60
45012;DHT22;63444;48.148;11.542;2023-07-31T14:57:55;25.50;81.70
45012;DHT22;63444;48.148;11.542;2023-07-31T15:00:21;25.60;81.80
45012;DHT22;63444;48.148;11.542;2023-07-31T15:02:47;25.60;82.00
45012;DHT22;63444;48.148;11.542;2023-07-31T15:05:12;25.60;82.10
45012;DHT22;63444;48.148;11.542;2023-07-31T15:07:38;25.60;80.00
45012;DHT22;63444;48.148;11.542;2023-07-31T15:10:04;25.60;80.20
45012;DHT22;63444;48.148;11.542;2023-07-31T15:12:31;25.60;80.30
45012;DHT22;63444;48.148;11.542;2023-07-31T15:14:56;25.50;80.60
45012;DHT22;63444;48.148;11.542;2023-07-31T15:17:22;25.40;80.80
45012;DHT22;63444;48.148;11.542;2023-07-31T15:19:48;25.40;81.60
45012;DHT22;63444;48.148;11.542;2023-07-31T15:22:13;25.30;81.70
45012;DHT22;63444;48.148;11.542;2023-07-31T15:24:39;25.20;82.40
45012;DHT22;63444;48.148;11.542;2023-07-31T15:27:05;25.30;83.10